createdAt,value
2018-06-21T00:00:55.984Z,11.27
2018-06-21T00:03:24.626Z,7.50
2018-06-21T00:05:54.011Z,14.53
2018-06-21T00:08:22.509Z,8.13
2018-06-21T00:10:51.012Z,9.23
2018-06-21T00:13:19.496Z,9.43
2018-06-21T00:15:48.152Z,10.37
2018-06-21T00:18:16.590Z,10.73
2018-06-21T00:20:45.067Z,12.23
2018-06-21T00:23:13.517Z,14.27
2018-06-21T00:25:41.999Z,12.17
2018-06-21T00:28:10.438Z,15.07
2018-06-21T00:30:38.892Z,14.90
2018-06-21T00:33:07.605Z,10.87
2018-06-21T00:35:36.220Z,9.73
2018-06-21T00:38:04.781Z,12.70
2018-06-21T00:40:33.195Z,8.93
2018-06-21T00:43:01.658Z,13.07
2018-06-21T00:45:30.337Z,10.70
2018-06-21T00:47:58.915Z,11.57
2018-06-21T00:50:27.411Z,11.73
2018-06-21T00:52:55.903Z,13.53
2018-06-21T00:55:35.739Z,10.60
2018-06-21T00:58:04.265Z,12.83
2018-06-21T01:00:32.772Z,10.67
2018-06-21T01:03:01.239Z,11.03
2018-06-21T01:05:29.694Z,11.90
2018-06-21T01:07:58.171Z,17.10
2018-06-21T01:10:26.690Z,16.07
2018-06-21T01:12:56.020Z,12.90
2018-06-21T01:15:24.836Z,15.33
2018-06-21T01:17:53.541Z,12.80
2018-06-21T01:20:22.025Z,12.93
2018-06-21T01:22:50.294Z,13.00
2018-06-21T01:25:18.798Z,14.10
2018-06-21T01:27:47.280Z,17.73
2018-06-21T01:30:15.725Z,15.90
2018-06-21T01:32:44.200Z,21.60
2018-06-21T01:35:12.788Z,13.17
2018-06-21T01:37:41.320Z,19.43
2018-06-21T01:40:09.990Z,15.70
2018-06-21T01:42:39.016Z,14.27
2018-06-21T01:45:07.155Z,17.43
2018-06-21T01:47:35.592Z,18.13
2018-06-21T01:50:04.243Z,25.63
2018-06-21T01:52:32.808Z,22.17
2018-06-21T01:55:01.733Z,24.37
2018-06-21T01:57:30.742Z,16.90
2018-06-21T01:59:59.214Z,20.23
2018-06-21T02:02:27.756Z,17.40
2018-06-21T02:04:56.799Z,19.53
2018-06-21T02:07:25.272Z,18.53
2018-06-21T02:09:53.856Z,14.20
2018-06-21T02:12:22.300Z,23.10
2018-06-21T02:14:51.132Z,16.07
2018-06-21T02:17:19.774Z,16.73
2018-06-21T02:19:48.248Z,20.97
2018-06-21T02:22:16.772Z,16.67
2018-06-21T02:24:45.345Z,27.43
2018-06-21T02:27:14.130Z,19.20
2018-06-21T02:29:42.782Z,13.07
2018-06-21T02:32:11.693Z,13.70
2018-06-21T02:34:40.205Z,14.80
2018-06-21T02:37:08.686Z,17.13
2018-06-21T02:39:37.253Z,14.87
2018-06-21T02:42:06.672Z,15.93
2018-06-21T02:44:35.153Z,18.77
2018-06-21T02:47:03.635Z,24.37
2018-06-21T02:49:32.072Z,15.60
2018-06-21T02:52:00.576Z,17.10
2018-06-21T02:54:29.200Z,11.90
2018-06-21T02:56:58.073Z,15.63
2018-06-21T02:59:26.482Z,11.30
2018-06-21T03:01:54.646Z,11.13
2018-06-21T03:04:23.144Z,12.60
2018-06-21T03:06:51.557Z,10.33
2018-06-21T03:09:20.030Z,12.83
2018-06-21T03:11:48.571Z,13.33
2018-06-21T03:14:18.033Z,12.30
2018-06-21T03:16:46.678Z,14.33
2018-06-21T03:19:15.228Z,10.47
2018-06-21T03:21:43.673Z,17.10
2018-06-21T03:24:12.173Z,18.00
2018-06-21T03:26:40.773Z,9.97
2018-06-21T03:29:09.207Z,11.43
2018-06-21T03:31:37.791Z,9.23
2018-06-21T03:34:06.315Z,10.23
2018-06-21T03:36:34.801Z,7.70
2018-06-21T03:39:03.433Z,9.17
2018-06-21T03:41:31.907Z,9.47
2018-06-21T03:44:00.649Z,12.83
2018-06-21T03:46:29.336Z,9.80
2018-06-21T03:48:57.871Z,9.83
2018-06-21T03:51:26.401Z,8.93
2018-06-21T03:53:54.958Z,9.83
2018-06-21T03:56:23.495Z,10.10
2018-06-21T03:58:52.107Z,12.67
2018-06-21T04:01:20.556Z,9.20
2018-06-21T04:03:49.042Z,11.07
2018-06-21T04:06:17.646Z,11.07
2018-06-21T04:08:46.148Z,10.50
2018-06-21T04:11:14.674Z,21.43
2018-06-21T04:13:43.365Z,12.40
2018-06-21T04:16:11.851Z,9.70
2018-06-21T04:18:40.465Z,12.27
2018-06-21T04:21:10.471Z,13.60
2018-06-21T04:23:38.951Z,14.97
2018-06-21T04:26:07.460Z,11.67
2018-06-21T04:28:35.986Z,11.53
2018-06-21T04:31:04.496Z,10.37
2018-06-21T04:33:32.969Z,11.30
2018-06-21T04:36:02.144Z,12.13
2018-06-21T04:38:30.581Z,12.43
2018-06-21T04:40:59.112Z,23.27
2018-06-21T04:43:27.556Z,22.13
2018-06-21T04:45:56.898Z,25.50
2018-06-21T04:48:25.369Z,23.60
2018-06-21T04:50:53.838Z,20.50
2018-06-21T04:53:22.248Z,30.30
2018-06-21T04:55:50.720Z,24.03
2018-06-21T04:58:19.278Z,25.47
2018-06-21T05:00:47.925Z,26.50
2018-06-21T05:03:16.353Z,28.80
2018-06-21T05:05:44.524Z,24.73
2018-06-21T05:08:13.005Z,23.50
2018-06-21T05:10:41.545Z,25.23
2018-06-21T05:13:10.540Z,17.10
2018-06-21T05:15:39.026Z,17.93
2018-06-21T05:18:07.651Z,15.27
2018-06-21T05:20:36.344Z,17.80
2018-06-21T05:23:05.096Z,16.60
2018-06-21T05:25:33.712Z,20.27
2018-06-21T05:28:02.497Z,17.10
2018-06-21T05:30:30.976Z,22.20
2018-06-21T05:32:59.525Z,19.93
2018-06-21T05:35:28.024Z,19.10
2018-06-21T05:37:56.961Z,20.50
2018-06-21T05:40:31.682Z,23.80
2018-06-21T05:43:01.252Z,27.80
2018-06-21T05:45:29.924Z,22.50
2018-06-21T05:48:00.142Z,22.70
2018-06-21T05:50:29.597Z,33.33
2018-06-21T05:52:59.091Z,28.03
2018-06-21T05:55:28.349Z,34.20
2018-06-21T05:57:56.892Z,29.30
2018-06-21T06:00:25.898Z,26.90
2018-06-21T06:02:54.631Z,31.80
2018-06-21T06:05:23.291Z,41.03
2018-06-21T06:07:51.896Z,37.23
2018-06-21T06:10:21.294Z,37.50
2018-06-21T06:12:49.847Z,38.73
2018-06-21T06:15:18.389Z,32.17
2018-06-21T06:17:46.894Z,37.03
2018-06-21T06:20:15.657Z,37.67
2018-06-21T06:22:44.170Z,37.27
2018-06-21T06:25:12.744Z,40.00
2018-06-21T06:27:41.247Z,38.23
2018-06-21T06:30:10.026Z,36.60
2018-06-21T06:32:39.067Z,40.60
2018-06-21T06:35:07.668Z,36.33
2018-06-21T06:37:36.342Z,37.60
2018-06-21T06:40:05.173Z,30.63
2018-06-21T06:42:33.745Z,31.60
2018-06-21T06:45:02.228Z,32.23
2018-06-21T06:47:30.399Z,37.23
2018-06-21T06:49:58.912Z,38.80
2018-06-21T06:52:27.584Z,38.33
2018-06-21T06:54:56.049Z,34.17
2018-06-21T06:57:25.081Z,39.80
2018-06-21T06:59:53.577Z,35.17
2018-06-21T07:02:22.070Z,33.93
2018-06-21T07:04:52.861Z,39.87
2018-06-21T07:07:21.497Z,34.30
2018-06-21T07:09:50.831Z,40.53
2018-06-21T07:12:20.163Z,36.20
2018-06-21T07:14:49.658Z,41.03
2018-06-21T07:17:18.827Z,41.83
2018-06-21T07:19:47.331Z,34.77
2018-06-21T07:22:16.094Z,39.60
2018-06-21T07:24:44.753Z,40.93
2018-06-21T07:27:13.746Z,38.70
2018-06-21T07:29:42.455Z,40.63
2018-06-21T07:32:11.760Z,34.07
2018-06-21T07:34:40.261Z,31.17
2018-06-21T07:37:12.903Z,41.60
2018-06-21T07:39:42.024Z,31.43
2018-06-21T07:42:13.562Z,28.40
2018-06-21T07:44:42.611Z,32.20
2018-06-21T07:47:12.010Z,29.10
2018-06-21T07:49:40.214Z,22.00
2018-06-21T07:52:09.403Z,14.47
2018-06-21T07:54:38.314Z,11.70
2018-06-21T07:57:06.963Z,11.00
2018-06-21T07:59:35.585Z,17.83
2018-06-21T08:02:04.333Z,11.10
2018-06-21T08:04:32.890Z,10.37
2018-06-21T08:07:01.375Z,9.17
2018-06-21T08:09:30.146Z,11.40
2018-06-21T08:11:58.649Z,8.53
2018-06-21T08:14:27.303Z,9.90
2018-06-21T08:16:55.913Z,11.33
2018-06-21T08:19:24.793Z,20.60
2018-06-21T08:21:53.572Z,8.23
2018-06-21T08:24:22.220Z,14.27
2018-06-21T08:26:50.956Z,8.43
2018-06-21T08:29:19.676Z,6.30
2018-06-21T08:31:48.412Z,6.10
2018-06-21T08:34:17.101Z,8.70
2018-06-21T08:36:45.734Z,4.70
2018-06-21T08:39:14.425Z,8.37
2018-06-21T08:41:42.874Z,7.63
2018-06-21T08:44:11.417Z,5.63
2018-06-21T08:46:39.869Z,4.43
2018-06-21T08:49:08.567Z,3.90
2018-06-21T08:51:37.290Z,6.77
2018-06-21T08:54:05.846Z,6.60
2018-06-21T08:56:34.022Z,3.93
2018-06-21T08:59:02.465Z,4.27
2018-06-21T09:01:31.024Z,10.13
2018-06-21T09:03:59.531Z,8.20
2018-06-21T09:06:28.260Z,4.20
2018-06-21T09:08:57.348Z,8.57
2018-06-21T09:11:25.864Z,7.07
2018-06-21T09:13:54.324Z,4.40
2018-06-21T09:16:22.814Z,6.73
2018-06-21T09:18:52.086Z,6.90
2018-06-21T09:21:20.680Z,4.30
2018-06-21T09:23:49.706Z,5.50
2018-06-21T09:26:18.471Z,7.17
2018-06-21T09:28:47.226Z,11.63
2018-06-21T09:31:15.902Z,8.57
2018-06-21T09:33:44.440Z,8.30
2018-06-21T09:36:13.137Z,6.00
2018-06-21T09:38:46.884Z,9.67
2018-06-21T09:41:20.596Z,5.30
2018-06-21T09:44:03.830Z,7.37
2018-06-21T09:46:33.877Z,4.97
2018-06-21T09:48:56.984Z,7.10
2018-06-21T09:51:25.974Z,6.75
2018-06-21T09:53:54.601Z,3.98
2018-06-21T09:56:23.117Z,9.65
2018-06-21T09:58:52.487Z,6.93
2018-06-21T10:01:21.032Z,20.63
2018-06-21T10:03:49.512Z,8.50
2018-06-21T10:06:18.108Z,9.27
2018-06-21T10:08:46.601Z,4.60
2018-06-21T10:11:15.132Z,5.63
2018-06-21T10:13:43.636Z,18.10
2018-06-21T10:16:12.701Z,4.13
2018-06-21T10:18:41.289Z,6.17
2018-06-21T10:21:09.934Z,3.07
2018-06-21T10:23:38.575Z,9.90
2018-06-21T10:26:07.102Z,6.60
2018-06-21T10:28:35.686Z,4.47
2018-06-21T10:31:04.198Z,9.30
2018-06-21T10:33:32.708Z,9.10
2018-06-21T10:36:01.783Z,5.80
2018-06-21T10:38:30.619Z,4.30
2018-06-21T10:40:59.565Z,4.60
2018-06-21T10:43:28.137Z,10.20
2018-06-21T10:45:56.709Z,6.27
2018-06-21T10:48:25.253Z,10.60
2018-06-21T10:50:53.856Z,5.97
2018-06-21T10:53:22.835Z,15.63
2018-06-21T10:55:51.871Z,8.50
2018-06-21T10:58:20.419Z,7.50
2018-06-21T11:00:49.348Z,2.53
2018-06-21T11:03:18.486Z,6.73
2018-06-21T11:05:48.305Z,5.80
2018-06-21T11:08:16.994Z,6.30
2018-06-21T11:10:45.573Z,2.93
2018-06-21T11:13:14.294Z,2.97
2018-06-21T11:15:43.955Z,6.93
2018-06-21T11:18:12.450Z,2.30
2018-06-21T11:20:40.908Z,6.30
2018-06-21T11:23:09.521Z,3.90
2018-06-21T11:25:38.346Z,10.93
2018-06-21T11:28:07.023Z,4.30
2018-06-21T11:30:35.418Z,6.80
2018-06-21T11:33:03.937Z,5.50
2018-06-21T11:35:32.408Z,8.03
2018-06-21T11:38:00.979Z,2.33
2018-06-21T11:40:29.480Z,7.03
2018-06-21T11:42:57.965Z,2.70
2018-06-21T11:45:26.426Z,2.83
2018-06-21T11:47:55.188Z,3.40
2018-06-21T11:50:23.641Z,4.40
2018-06-21T11:52:52.398Z,3.47
2018-06-21T11:55:21.148Z,2.80
2018-06-21T11:57:50.356Z,6.00
2018-06-21T12:00:18.948Z,7.83
2018-06-21T12:02:47.530Z,3.93
2018-06-21T12:05:16.042Z,4.77
2018-06-21T12:07:44.537Z,8.20
2018-06-21T12:10:13.556Z,5.37
2018-06-21T12:12:42.005Z,9.07
2018-06-21T12:15:10.537Z,6.83
2018-06-21T12:17:39.487Z,3.83
2018-06-21T12:20:07.960Z,7.70
2018-06-21T12:22:36.538Z,2.97
2018-06-21T12:25:05.173Z,5.80
2018-06-21T12:27:33.917Z,6.93
2018-06-21T12:30:02.634Z,4.60
2018-06-21T12:32:31.097Z,6.10
2018-06-21T12:34:59.741Z,2.63
2018-06-21T12:37:28.306Z,6.10
2018-06-21T12:39:57.169Z,2.00
2018-06-21T12:42:25.764Z,6.00
2018-06-21T12:44:54.305Z,9.93
2018-06-21T12:47:22.822Z,21.63
2018-06-21T12:49:51.354Z,3.53
2018-06-21T12:52:20.004Z,10.43
2018-06-21T12:54:48.462Z,4.57
2018-06-21T12:57:17.281Z,4.50
2018-06-21T12:59:45.762Z,5.70
2018-06-21T13:02:14.303Z,7.27
2018-06-21T13:04:43.187Z,7.80
2018-06-21T13:07:11.741Z,14.33
2018-06-21T13:09:51.583Z,10.60
2018-06-21T13:12:32.367Z,11.30
2018-06-21T13:15:00.894Z,11.63
2018-06-21T13:17:30.686Z,9.10
2018-06-21T13:20:00.400Z,9.63
2018-06-21T13:22:29.504Z,3.80
2018-06-21T13:24:57.798Z,5.80
2018-06-21T13:27:26.371Z,7.43
2018-06-21T13:29:54.886Z,3.40
2018-06-21T13:32:23.470Z,2.90
2018-06-21T13:34:52.116Z,5.63
2018-06-21T13:37:20.644Z,10.50
2018-06-21T13:39:49.099Z,11.93
2018-06-21T13:42:18.058Z,7.73
2018-06-21T13:44:46.519Z,9.90
2018-06-21T13:47:15.068Z,10.43
2018-06-21T13:49:43.682Z,6.23
2018-06-21T13:52:12.235Z,17.60
2018-06-21T13:54:40.740Z,6.43
2018-06-21T13:57:09.271Z,9.73
2018-06-21T13:59:37.830Z,4.93
2018-06-21T14:02:06.524Z,4.93
2018-06-21T14:04:35.241Z,6.97
2018-06-21T14:07:03.749Z,4.70
2018-06-21T14:09:32.293Z,6.63
2018-06-21T14:12:01.033Z,5.00
2018-06-21T14:14:29.682Z,8.53
2018-06-21T14:16:58.326Z,7.77
2018-06-21T14:19:26.892Z,8.30
2018-06-21T14:21:56.513Z,8.87
2018-06-21T14:24:25.020Z,4.70
2018-06-21T14:26:53.548Z,4.60
2018-06-21T14:29:21.999Z,3.67
2018-06-21T14:31:50.693Z,4.13
2018-06-21T14:34:19.549Z,6.23
2018-06-21T14:36:48.084Z,7.83
2018-06-21T14:39:16.609Z,11.43
2018-06-21T14:41:45.202Z,12.47
2018-06-21T14:44:13.869Z,9.87
2018-06-21T14:46:42.417Z,4.83
2018-06-21T14:49:11.015Z,4.03
2018-06-21T14:51:39.199Z,8.50
2018-06-21T14:54:07.835Z,7.17
2018-06-21T14:56:36.378Z,7.03
2018-06-21T14:59:04.994Z,6.47
2018-06-21T15:01:33.752Z,11.73
2018-06-21T15:04:02.284Z,7.07
2018-06-21T15:06:30.937Z,7.30
2018-06-21T15:08:59.543Z,6.23
2018-06-21T15:11:27.850Z,8.47
2018-06-21T15:13:56.474Z,6.77
2018-06-21T15:16:25.022Z,6.23
2018-06-21T15:18:53.585Z,5.07
2018-06-21T15:21:22.502Z,10.20
2018-06-21T15:23:51.004Z,6.70
2018-06-21T15:26:19.853Z,8.90
2018-06-21T15:28:48.396Z,4.70
2018-06-21T15:31:16.966Z,6.00
2018-06-21T15:33:45.506Z,2.47
2018-06-21T15:36:14.232Z,10.67
2018-06-21T15:38:42.732Z,11.43
2018-06-21T15:41:11.356Z,16.33
2018-06-21T15:43:41.086Z,3.43
2018-06-21T15:46:09.567Z,6.53
2018-06-21T15:48:38.234Z,8.40
2018-06-21T15:51:06.971Z,14.73
2018-06-21T15:53:35.266Z,11.73
2018-06-21T15:56:04.246Z,3.47
2018-06-21T15:58:33.409Z,3.27
2018-06-21T16:01:01.964Z,3.33
2018-06-21T16:03:30.526Z,7.83
2018-06-21T16:05:59.110Z,4.57
2018-06-21T16:08:27.806Z,5.90
2018-06-21T16:10:56.305Z,10.03
2018-06-21T16:13:25.215Z,10.07
2018-06-21T16:15:53.938Z,9.67
2018-06-21T16:18:22.924Z,4.83
2018-06-21T16:20:51.529Z,8.37
2018-06-21T16:23:20.691Z,5.43
2018-06-21T16:25:49.720Z,5.40
2018-06-21T16:28:18.239Z,4.60
2018-06-21T16:30:46.711Z,13.20
2018-06-21T16:33:15.316Z,12.67
2018-06-21T16:35:43.861Z,6.03
2018-06-21T16:38:12.636Z,5.67
2018-06-21T16:40:44.891Z,4.33
2018-06-21T16:43:13.493Z,8.23
2018-06-21T16:45:42.055Z,4.40
2018-06-21T16:48:10.892Z,13.83
2018-06-21T16:50:39.478Z,4.63
2018-06-21T16:53:08.036Z,5.27
2018-06-21T16:55:36.695Z,8.63
2018-06-21T16:58:06.481Z,2.77
2018-06-21T17:00:35.130Z,5.90
2018-06-21T17:03:03.723Z,4.13
2018-06-21T17:05:32.269Z,3.43
2018-06-21T17:08:00.845Z,4.03
2018-06-21T17:10:29.481Z,9.30
2018-06-21T17:12:57.955Z,7.60
2018-06-21T17:15:27.548Z,4.40
2018-06-21T17:17:56.313Z,3.43
2018-06-21T17:20:25.012Z,5.13
2018-06-21T17:22:53.523Z,2.20
2018-06-21T17:25:23.249Z,4.60
2018-06-21T17:27:51.880Z,2.97
2018-06-21T17:30:20.561Z,2.63
2018-06-21T17:32:49.134Z,2.53
2018-06-21T17:35:17.963Z,11.50
2018-06-21T17:37:46.419Z,1.47
2018-06-21T17:40:14.941Z,5.80
2018-06-21T17:42:43.085Z,7.00
2018-06-21T17:45:11.925Z,4.10
2018-06-21T17:47:40.865Z,6.33
2018-06-21T17:50:09.576Z,2.83
2018-06-21T17:52:39.712Z,7.00
2018-06-21T17:55:08.792Z,1.90
2018-06-21T17:57:37.516Z,2.63
2018-06-21T18:00:06.172Z,4.97
2018-06-21T18:02:34.994Z,3.80
2018-06-21T18:05:03.511Z,2.00
2018-06-21T18:07:32.379Z,6.13
2018-06-21T18:10:00.863Z,7.13
2018-06-21T18:12:29.449Z,3.93
2018-06-21T18:14:57.960Z,6.90
2018-06-21T18:17:26.586Z,6.60
2018-06-21T18:19:55.140Z,2.60
2018-06-21T18:22:24.014Z,3.80
2018-06-21T18:24:52.481Z,3.40
2018-06-21T18:27:21.178Z,1.80
2018-06-21T18:29:49.858Z,7.70
2018-06-21T18:32:18.398Z,4.13
2018-06-21T18:34:47.279Z,3.80
2018-06-21T18:37:16.637Z,1.73
2018-06-21T18:39:45.555Z,7.47
2018-06-21T18:42:14.321Z,9.77
2018-06-21T18:44:43.077Z,6.80
2018-06-21T18:47:12.097Z,1.90
2018-06-21T18:49:40.660Z,3.30
2018-06-21T18:52:10.477Z,12.23
2018-06-21T18:54:39.580Z,5.83
2018-06-21T18:57:08.065Z,15.23
2018-06-21T18:59:37.575Z,5.33
2018-06-21T19:02:06.724Z,3.00
2018-06-21T19:04:35.506Z,6.30
2018-06-21T19:07:09.395Z,5.47
2018-06-21T19:09:43.854Z,6.03
2018-06-21T19:12:14.368Z,9.80
2018-06-21T19:14:42.551Z,10.03
2018-06-21T19:17:11.477Z,7.87
2018-06-21T19:19:40.064Z,6.50
2018-06-21T19:22:08.984Z,5.67
2018-06-21T19:24:37.930Z,6.20
2018-06-21T19:27:07.798Z,6.07
2018-06-21T19:29:37.322Z,13.03
2018-06-21T19:32:06.008Z,7.63
2018-06-21T19:34:34.514Z,17.50
2018-06-21T19:37:03.906Z,12.93
2018-06-21T19:39:32.784Z,4.37
2018-06-21T19:42:01.653Z,7.33
2018-06-21T19:44:30.609Z,2.60
2018-06-21T19:46:59.148Z,5.73
2018-06-21T19:49:28.913Z,14.23
2018-06-21T19:51:57.383Z,6.10
2018-06-21T19:54:26.833Z,7.17
2018-06-21T19:56:55.762Z,11.03
2018-06-21T19:59:25.269Z,9.03
2018-06-21T20:01:54.446Z,4.53
2018-06-21T20:04:24.307Z,2.83
2018-06-21T20:06:52.936Z,5.20
2018-06-21T20:09:21.624Z,6.20
2018-06-21T20:11:50.742Z,6.67
2018-06-21T20:14:19.390Z,8.13
2018-06-21T20:16:48.583Z,5.57
2018-06-21T20:19:18.674Z,14.30
2018-06-21T20:21:47.277Z,5.63
2018-06-21T20:24:16.063Z,10.23
2018-06-21T20:26:44.577Z,3.80
2018-06-21T20:29:19.070Z,12.23
2018-06-21T20:31:48.097Z,9.33
2018-06-21T20:34:16.721Z,16.00
2018-06-21T20:36:46.335Z,7.90
2018-06-21T20:39:14.830Z,8.07
2018-06-21T20:41:44.008Z,4.77
2018-06-21T20:44:12.206Z,9.63
2018-06-21T20:46:40.701Z,8.37
2018-06-21T20:49:09.244Z,5.33
2018-06-21T20:51:38.212Z,9.13
2018-06-21T20:54:06.783Z,10.50
2018-06-21T20:56:35.368Z,10.70
2018-06-21T20:59:03.931Z,7.87
2018-06-21T21:01:32.469Z,8.73
2018-06-21T21:04:01.423Z,5.53
2018-06-21T21:06:30.135Z,4.77
2018-06-21T21:08:58.751Z,23.13
2018-06-21T21:11:27.361Z,6.20
2018-06-21T21:13:56.364Z,6.50
2018-06-21T21:16:25.022Z,9.27
2018-06-21T21:18:53.841Z,5.43
2018-06-21T21:21:22.462Z,6.50
2018-06-21T21:23:51.015Z,6.10
2018-06-21T21:26:19.689Z,5.93
2018-06-21T21:28:48.261Z,6.93
2018-06-21T21:31:17.070Z,11.93
2018-06-21T21:33:45.653Z,5.07
2018-06-21T21:36:14.368Z,13.63
2018-06-21T21:38:43.097Z,8.70
2018-06-21T21:41:11.566Z,10.07
2018-06-21T21:43:39.700Z,4.33
2018-06-21T21:46:13.471Z,5.67
2018-06-21T21:48:42.807Z,3.20
2018-06-21T21:51:11.888Z,14.10
2018-06-21T21:53:41.496Z,3.00
2018-06-21T21:56:10.554Z,11.93
2018-06-21T21:58:40.342Z,16.37
2018-06-21T22:01:08.820Z,6.80
2018-06-21T22:03:37.107Z,11.43
2018-06-21T22:06:05.808Z,17.23
2018-06-21T22:08:34.301Z,6.80
2018-06-21T22:11:02.806Z,12.03
2018-06-21T22:13:31.860Z,9.67
2018-06-21T22:16:00.355Z,10.83
2018-06-21T22:18:28.884Z,5.10
2018-06-21T22:20:57.770Z,10.90
2018-06-21T22:23:26.589Z,9.37
2018-06-21T22:25:55.172Z,4.73
2018-06-21T22:28:23.990Z,7.23
2018-06-21T22:30:52.522Z,8.53
2018-06-21T22:33:20.933Z,7.93
2018-06-21T22:35:49.560Z,4.33
2018-06-21T22:38:17.724Z,7.43
2018-06-21T22:40:45.940Z,8.07
2018-06-21T22:43:14.488Z,6.30
2018-06-21T22:45:42.961Z,4.17
2018-06-21T22:48:11.495Z,5.50
2018-06-21T22:50:40.105Z,13.83
2018-06-21T22:53:08.623Z,7.33
2018-06-21T22:55:37.179Z,4.80
2018-06-21T22:58:05.779Z,17.73
2018-06-21T23:00:34.231Z,17.77
2018-06-21T23:03:02.676Z,12.40
2018-06-21T23:05:31.652Z,12.30
2018-06-21T23:08:00.101Z,7.33
2018-06-21T23:10:28.683Z,8.13
2018-06-21T23:12:57.602Z,16.97
2018-06-21T23:15:26.172Z,10.40
2018-06-21T23:17:55.138Z,21.73
2018-06-21T23:20:23.684Z,17.47
2018-06-21T23:22:52.449Z,11.77
2018-06-21T23:25:20.698Z,18.70
2018-06-21T23:27:49.472Z,14.30
2018-06-21T23:30:17.926Z,8.77
2018-06-21T23:32:46.505Z,16.07
2018-06-21T23:35:15.060Z,7.07
2018-06-21T23:37:44.142Z,11.20
2018-06-21T23:40:12.605Z,9.93
2018-06-21T23:42:41.093Z,4.50
2018-06-21T23:45:09.792Z,9.87
2018-06-21T23:47:38.204Z,6.10
2018-06-21T23:50:07.189Z,7.13
2018-06-21T23:52:36.053Z,9.10
2018-06-21T23:55:04.674Z,16.63
2018-06-21T23:57:33.702Z,10.77
